FA55 weather

Garnair Airport
Bonifay, Florida, United States

Public forecast

Using degrees Fahrenheit for public forecast. Weather courtesy of forecast.io.

METAR (pilot weather report)

Closest report is Tri-County Airport, 9.5 nm (17.6 km) ENE. Retrieved 2018/07/20 18:58 UTC (16 minutes ago):

K1J0 201858Z AUTO VRB06KT 10SM BKN033 BKN043 32/24 A2994 RMK AO2 SLP097 T03170244

TAF (pilot weather forecast)

Closest forecast is Northwest Florida Beaches International Airport, 25.4 nm (47.1 km) S. Retrieved 2018/07/20 18:24 UTC (50 minutes ago):

TAF KECP 201722Z 2018/2118 31006KT P6SM VCTS SCT020 BKN035CB FM202200 25004KT P6SM BKN100 FM211400 26006KT P6SM SCT020